Time;durP1;ratioP1;P1;durP2;ratioP2;P2;SDS_P1;SDS_P2;PMS_P1;PMS_P2;Temp;Humidity;BMP_temperature;BMP_pressure;BME280_temperature;BME280_humidity;BME280_pressure;Samples;Min_cycle;Max_cycle;Signal;HPM_P1;HPM_P2
2022/06/02 00:00:06;;;;;;;10.27;5.72;;;;;;;;;;5096273;28;20056;-77
2022/06/02 00:02:32;;;;;;;11.27;6.43;;;;;;;;;;5088183;27;20600;-77
2022/06/02 00:04:59;;;;;;;11.48;6.93;;;;;;;;;;5096969;28;20537;-77
2022/06/02 00:07:44;;;;;;;9.50;6.10;;;;;;;;;;5099929;28;20058;-77
2022/06/02 00:10:22;;;;;;;9.35;6.30;;;;;;;;;;5102566;28;20052;-76
2022/06/02 00:12:52;;;;;;;10.13;6.35;;;;;;;;;;5090332;28;20628;-76
2022/06/02 00:15:28;;;;;;;10.60;6.15;;;;;;;;;;5087688;28;20070;-76
2022/06/02 00:18:06;;;;;;;10.98;6.68;;;;;;;;;;5097416;28;20062;-76
2022/06/02 00:20:39;;;;;;;11.07;7.28;;;;;;;;;;5095559;28;20195;-76
2022/06/02 00:23:24;;;;;;;13.50;7.50;;;;;;;;;;5097288;28;20139;-77
2022/06/02 00:25:53;;;;;;;11.07;7.10;;;;;;;;;;5101236;28;20056;-77
2022/06/02 00:28:29;;;;;;;14.32;7.07;;;;;;;;;;5080644;28;20297;-77
2022/06/02 00:31:14;;;;;;;11.32;7.50;;;;;;;;;;5094311;28;20049;-77
2022/06/02 00:33:50;;;;;;;12.23;7.35;;;;;;;;;;5090383;28;20056;-77
2022/06/02 00:36:28;;;;;;;12.50;7.78;;;;;;;;;;5081088;28;20048;-77
2022/06/02 00:38:56;;;;;;;13.18;7.80;;;;;;;;;;5083805;28;20053;-76
2022/06/02 00:41:29;;;;;;;14.88;8.38;;;;;;;;;;5087616;28;20176;-76
2022/06/02 00:44:16;;;;;;;14.98;8.45;;;;;;;;;;5085348;28;20533;-77
2022/06/02 00:46:52;;;;;;;12.90;7.72;;;;;;;;;;5079759;28;20569;-76
2022/06/02 00:49:22;;;;;;;12.13;7.80;;;;;;;;;;5088102;28;20063;-77
2022/06/02 00:51:55;;;;;;;15.75;8.70;;;;;;;;;;5082409;28;20071;-77
2022/06/02 00:57:39;;;;;;;14.65;9.10;;;;;;;;;;5091399;28;20624;-77
2022/06/02 01:00:12;;;;;;;13.80;8.30;;;;;;;;;;5081359;28;20060;-77
2022/06/02 01:02:48;;;;;;;12.63;8.52;;;;;;;;;;5081611;28;20049;-77
2022/06/02 01:05:18;;;;;;;13.93;8.27;;;;;;;;;;5087227;28;20063;-77
2022/06/02 01:07:48;;;;;;;18.23;9.10;;;;;;;;;;5081716;28;20061;-77
2022/06/02 01:10:39;;;;;;;14.73;9.02;;;;;;;;;;5081131;28;20079;-77
2022/06/02 01:13:18;;;;;;;13.93;9.20;;;;;;;;;;5088788;28;20519;-77
2022/06/02 01:15:55;;;;;;;15.77;9.38;;;;;;;;;;5087548;27;20059;-77
2022/06/02 01:18:25;;;;;;;13.70;9.27;;;;;;;;;;5090652;28;20141;-76
2022/06/02 01:21:03;;;;;;;14.98;9.45;;;;;;;;;;5086383;28;20551;-76
2022/06/02 01:23:42;;;;;;;16.38;10.00;;;;;;;;;;5099654;28;20512;-76
2022/06/02 01:26:38;;;;;;;19.35;9.23;;;;;;;;;;5082412;28;20533;-76
2022/06/02 01:29:04;;;;;;;16.20;9.80;;;;;;;;;;5014748;28;20050;-76
2022/06/02 01:31:37;;;;;;;18.52;9.70;;;;;;;;;;5078297;28;21033;-76
2022/06/02 01:34:14;;;;;;;17.42;10.15;;;;;;;;;;5095479;28;20135;-76
2022/06/02 01:36:49;;;;;;;19.73;10.02;;;;;;;;;;5087585;28;20517;-76
2022/06/02 01:39:36;;;;;;;15.23;9.32;;;;;;;;;;5098980;28;20059;-76
2022/06/02 01:42:16;;;;;;;12.73;7.78;;;;;;;;;;5056070;27;20417;-76
2022/06/02 01:44:46;;;;;;;13.90;7.97;;;;;;;;;;5088415;28;20068;-76
2022/06/02 01:47:12;;;;;;;12.88;7.68;;;;;;;;;;5092622;28;20577;-76
2022/06/02 01:49:51;;;;;;;13.68;8.13;;;;;;;;;;5091099;28;20063;-76
2022/06/02 01:52:30;;;;;;;11.05;6.65;;;;;;;;;;5091791;27;20062;-76
2022/06/02 01:55:03;;;;;;;12.30;7.18;;;;;;;;;;5099773;28;20056;-76
2022/06/02 01:57:41;;;;;;;12.57;7.85;;;;;;;;;;5095328;28;20054;-76
2022/06/02 02:00:08;;;;;;;13.38;8.18;;;;;;;;;;5092806;28;20056;-76
2022/06/02 02:02:50;;;;;;;14.15;8.40;;;;;;;;;;5087566;28;20134;-76
2022/06/02 02:05:20;;;;;;;14.82;8.88;;;;;;;;;;5091453;28;20612;-76
2022/06/02 02:08:05;;;;;;;15.98;8.60;;;;;;;;;;5090333;28;20645;-77
2022/06/02 02:10:45;;;;;;;15.85;8.63;;;;;;;;;;5095050;28;20201;-76
2022/06/02 02:13:11;;;;;;;13.82;7.75;;;;;;;;;;5095963;27;20082;-76
2022/06/02 02:15:37;;;;;;;13.35;7.93;;;;;;;;;;5087307;28;20506;-76
2022/06/02 02:18:25;;;;;;;13.43;7.38;;;;;;;;;;5102910;28;20072;-76
2022/06/02 02:20:51;;;;;;;11.80;7.47;;;;;;;;;;5091184;28;20487;-76
2022/06/02 02:23:20;;;;;;;14.40;8.27;;;;;;;;;;5083665;28;20290;-76
2022/06/02 02:26:13;;;;;;;14.18;8.55;;;;;;;;;;5102522;28;20194;-76
2022/06/02 02:28:55;;;;;;;16.33;8.43;;;;;;;;;;5075954;28;20129;-77
2022/06/02 02:31:25;;;;;;;14.15;7.93;;;;;;;;;;5086488;28;20060;-76
2022/06/02 02:33:52;;;;;;;;;;;;;;;;;;5103926;28;20530;-77
2022/06/02 02:36:28;;;;;;;14.38;8.68;;;;;;;;;;5102452;28;45812;-76
2022/06/02 02:39:00;;;;;;;16.90;9.18;;;;;;;;;;5088882;28;20363;-76
2022/06/02 02:41:35;;;;;;;14.25;8.48;;;;;;;;;;5095972;28;20566;-76
2022/06/02 02:44:10;;;;;;;13.70;8.52;;;;;;;;;;5082917;28;20053;-76
2022/06/02 02:46:59;;;;;;;16.65;9.48;;;;;;;;;;5095192;28;20066;-76
2022/06/02 02:49:44;;;;;;;15.35;8.85;;;;;;;;;;5087057;28;20411;-76
2022/06/02 02:52:16;;;;;;;14.25;8.30;;;;;;;;;;5081104;28;20127;-76
2022/06/02 02:54:53;;;;;;;13.95;8.82;;;;;;;;;;5086170;28;20106;-76
2022/06/02 02:57:38;;;;;;;11.13;7.15;;;;;;;;;;5101966;28;20052;-76
2022/06/02 03:00:21;;;;;;;13.63;7.10;;;;;;;;;;5088621;28;20139;-76
2022/06/02 03:02:53;;;;;;;12.73;7.10;;;;;;;;;;5093880;28;20048;-77
2022/06/02 03:05:37;;;;;;;11.77;6.85;;;;;;;;;;5091728;28;20062;-76
2022/06/02 03:08:09;;;;;;;11.93;7.35;;;;;;;;;;5093658;28;20052;-76
2022/06/02 03:10:38;;;;;;;12.23;7.18;;;;;;;;;;5089862;28;20062;-76
2022/06/02 03:13:42;;;;;;;14.32;7.85;;;;;;;;;;5088701;28;20496;-77
2022/06/02 03:16:10;;;;;;;13.32;7.53;;;;;;;;;;5036142;28;20054;-76
2022/06/02 03:18:37;;;;;;;11.88;6.88;;;;;;;;;;5026193;28;20639;-76
2022/06/02 03:21:32;;;;;;;12.15;6.90;;;;;;;;;;5061158;28;20143;-76
2022/06/02 03:24:02;;;;;;;14.38;7.38;;;;;;;;;;5078207;28;20111;-76
2022/06/02 03:26:35;;;;;;;12.93;8.15;;;;;;;;;;5091685;28;20473;-76
2022/06/02 03:29:21;;;;;;;15.25;8.38;;;;;;;;;;5089207;28;20553;-77
2022/06/02 03:32:11;;;;;;;14.60;8.18;;;;;;;;;;5088416;28;20135;-76
2022/06/02 03:34:43;;;;;;;16.40;8.57;;;;;;;;;;5092300;28;20148;-76
2022/06/02 03:37:18;;;;;;;15.68;8.90;;;;;;;;;;5093214;28;20670;-76
2022/06/02 03:39:50;;;;;;;14.88;8.60;;;;;;;;;;5100084;28;20052;-76
2022/06/02 03:42:31;;;;;;;16.80;9.18;;;;;;;;;;5087653;28;20052;-76
2022/06/02 03:45:17;;;;;;;19.40;9.38;;;;;;;;;;5082377;28;20059;-76
2022/06/02 03:47:43;;;;;;;18.00;10.15;;;;;;;;;;5087488;28;20056;-76
2022/06/02 03:50:12;;;;;;;17.23;9.32;;;;;;;;;;5086513;28;20049;-77
2022/06/02 03:52:39;;;;;;;17.75;9.23;;;;;;;;;;5083379;28;20159;-76
2022/06/02 03:55:05;;;;;;;13.95;8.10;;;;;;;;;;5087658;28;20056;-77
2022/06/02 03:57:51;;;;;;;12.80;7.78;;;;;;;;;;5096491;27;20156;-77
2022/06/02 04:00:20;;;;;;;14.48;7.60;;;;;;;;;;5091732;28;20084;-77
2022/06/02 04:02:52;;;;;;;16.10;8.93;;;;;;;;;;5101084;28;20052;-77
2022/06/02 04:05:34;;;;;;;16.85;8.98;;;;;;;;;;5085006;28;20048;-77
2022/06/02 04:08:06;;;;;;;14.05;8.85;;;;;;;;;;5086611;28;20136;-77
2022/06/02 04:10:37;;;;;;;17.35;9.63;;;;;;;;;;5092232;28;20747;-77
2022/06/02 04:16:07;;;;;;;16.88;9.65;;;;;;;;;;5092387;28;20461;-77
2022/06/02 04:18:52;;;;;;;17.08;9.45;;;;;;;;;;5083912;28;20128;-77
2022/06/02 04:21:28;;;;;;;17.33;9.10;;;;;;;;;;5090342;28;20143;-77
2022/06/02 04:24:10;;;;;;;15.18;8.65;;;;;;;;;;5088889;28;20060;-77
2022/06/02 04:26:55;;;;;;;17.00;9.45;;;;;;;;;;5091727;28;20048;-77
2022/06/02 04:29:27;;;;;;;16.15;9.48;;;;;;;;;;5087243;28;20061;-77
2022/06/02 04:31:57;;;;;;;17.85;9.70;;;;;;;;;;5092424;28;20083;-77
2022/06/02 04:34:30;;;;;;;17.90;10.18;;;;;;;;;;5094340;28;20147;-77
2022/06/02 04:37:09;;;;;;;18.63;10.07;;;;;;;;;;5101815;28;20064;-77
2022/06/02 04:39:53;;;;;;;18.92;10.45;;;;;;;;;;5091318;28;20055;-77
2022/06/02 04:42:29;;;;;;;18.35;9.88;;;;;;;;;;5089901;28;20495;-77
2022/06/02 04:45:01;;;;;;;17.65;10.02;;;;;;;;;;5092502;28;20060;-77
2022/06/02 04:47:31;;;;;;;19.20;10.63;;;;;;;;;;5081051;28;20135;-77
2022/06/02 04:50:03;;;;;;;18.75;10.32;;;;;;;;;;5087822;28;20053;-77
2022/06/02 04:52:35;;;;;;;20.48;11.38;;;;;;;;;;5099268;28;21741;-75
2022/06/02 04:55:05;;;;;;;21.17;11.32;;;;;;;;;;5098597;28;20139;-75
2022/06/02 04:57:39;;;;;;;24.55;12.55;;;;;;;;;;5101404;27;20388;-78
2022/06/02 05:00:10;;;;;;;19.58;11.23;;;;;;;;;;5086217;28;20055;-77
2022/06/02 05:02:52;;;;;;;23.00;12.30;;;;;;;;;;5096846;28;20076;-78
2022/06/02 05:05:53;;;;;;;22.83;12.32;;;;;;;;;;5103336;27;20576;-77
2022/06/02 05:08:29;;;;;;;23.35;12.10;;;;;;;;;;4994722;28;20408;-77
2022/06/02 05:10:56;;;;;;;19.42;11.43;;;;;;;;;;5070474;28;20076;-78
2022/06/02 05:13:22;;;;;;;20.33;11.23;;;;;;;;;;5089830;28;20056;-77
2022/06/02 05:16:03;;;;;;;20.50;11.27;;;;;;;;;;5101532;28;20146;-77
2022/06/02 05:18:41;;;;;;;25.75;13.00;;;;;;;;;;5097170;28;20063;-77
2022/06/02 05:21:26;;;;;;;23.45;13.57;;;;;;;;;;5094349;28;20128;-77
2022/06/02 05:23:54;;;;;;;24.42;13.25;;;;;;;;;;5089654;28;20051;-77
2022/06/02 05:26:32;;;;;;;24.60;13.13;;;;;;;;;;5087455;28;20091;-78
2022/06/02 05:28:59;;;;;;;23.73;13.88;;;;;;;;;;5093936;27;20139;-78
2022/06/02 05:31:40;;;;;;;21.83;13.02;;;;;;;;;;5094151;28;20052;-78
2022/06/02 05:34:07;;;;;;;27.50;15.80;;;;;;;;;;5095372;28;20057;-77
2022/06/02 05:36:46;;;;;;;23.83;14.25;;;;;;;;;;5103625;28;20985;-78
2022/06/02 05:39:16;;;;;;;22.55;14.45;;;;;;;;;;5088622;28;20056;-75
2022/06/02 05:41:48;;;;;;;21.40;12.75;;;;;;;;;;5094035;28;20057;-75
2022/06/02 05:44:17;;;;;;;19.83;12.35;;;;;;;;;;5102903;28;20139;-74
2022/06/02 05:46:44;;;;;;;19.38;11.68;;;;;;;;;;5102456;28;20139;-75
2022/06/02 05:49:17;;;;;;;22.48;12.77;;;;;;;;;;5085264;28;20265;-75
2022/06/02 05:52:02;;;;;;;19.23;12.00;;;;;;;;;;5093543;28;20520;-75
2022/06/02 05:54:34;;;;;;;20.02;11.23;;;;;;;;;;5086758;28;20078;-75
2022/06/02 05:57:04;;;;;;;16.48;10.45;;;;;;;;;;5090990;28;20151;-75
2022/06/02 05:59:49;;;;;;;14.77;9.50;;;;;;;;;;5092652;28;20058;-76
2022/06/02 06:02:15;;;;;;;19.30;10.55;;;;;;;;;;5094404;28;21390;-75
2022/06/02 06:04:45;;;;;;;14.15;10.00;;;;;;;;;;5093126;28;20135;-75
2022/06/02 06:07:20;;;;;;;14.55;8.77;;;;;;;;;;5099925;28;20056;-75
2022/06/02 06:10:15;;;;;;;14.98;9.07;;;;;;;;;;5083258;28;20048;-76
2022/06/02 06:12:51;;;;;;;14.68;8.73;;;;;;;;;;5075987;28;20107;-76
2022/06/02 06:15:36;;;;;;;13.35;9.07;;;;;;;;;;5083430;28;20155;-76
2022/06/02 06:18:22;;;;;;;13.15;9.25;;;;;;;;;;5094635;28;20092;-75
2022/06/02 06:20:55;;;;;;;16.02;9.02;;;;;;;;;;5088765;28;20067;-76
2022/06/02 06:23:30;;;;;;;11.57;8.18;;;;;;;;;;5095791;28;20064;-75
2022/06/02 06:25:57;;;;;;;12.45;8.38;;;;;;;;;;5104880;27;20055;-76
2022/06/02 06:28:25;;;;;;;12.15;7.72;;;;;;;;;;5097207;28;20970;-76
2022/06/02 06:31:03;;;;;;;12.27;7.95;;;;;;;;;;5096265;28;20128;-76
2022/06/02 06:33:33;;;;;;;12.73;7.20;;;;;;;;;;5096150;28;20516;-76
2022/06/02 06:36:25;;;;;;;11.82;7.10;;;;;;;;;;5088248;28;20523;-76
2022/06/02 06:38:57;;;;;;;12.40;7.05;;;;;;;;;;5101113;28;20052;-76
2022/06/02 06:41:36;;;;;;;10.93;7.53;;;;;;;;;;5096182;28;20056;-76
2022/06/02 06:44:12;;;;;;;9.88;6.72;;;;;;;;;;5089748;28;20519;-76
2022/06/02 06:46:49;;;;;;;11.77;6.20;;;;;;;;;;5082693;28;20147;-76
2022/06/02 06:49:22;;;;;;;10.20;6.70;;;;;;;;;;5090694;28;20065;-76
2022/06/02 06:52:07;;;;;;;8.07;5.75;;;;;;;;;;5088636;27;20060;-76
2022/06/02 06:54:54;;;;;;;9.70;6.15;;;;;;;;;;5093729;27;20075;-76
2022/06/02 06:57:39;;;;;;;9.73;5.13;;;;;;;;;;5089641;27;20451;-76
2022/06/02 07:00:08;;;;;;;8.73;5.45;;;;;;;;;;5083492;28;20084;-76
2022/06/02 07:02:34;;;;;;;8.35;5.55;;;;;;;;;;5096805;28;20062;-76
2022/06/02 07:05:14;;;;;;;8.57;5.35;;;;;;;;;;5088233;28;20553;-76
2022/06/02 07:07:40;;;;;;;9.45;5.43;;;;;;;;;;5082807;28;20174;-77
2022/06/02 07:10:13;;;;;;;7.05;4.70;;;;;;;;;;5090033;28;20159;-76
2022/06/02 07:12:52;;;;;;;7.22;4.50;;;;;;;;;;5098421;28;20147;-76
2022/06/02 07:15:37;;;;;;;8.57;5.13;;;;;;;;;;5087221;28;20143;-76
2022/06/02 07:18:10;;;;;;;10.70;4.82;;;;;;;;;;5086603;28;20270;-76
2022/06/02 07:20:41;;;;;;;7.13;4.25;;;;;;;;;;5081634;28;20130;-76
2022/06/02 07:23:20;;;;;;;6.72;4.32;;;;;;;;;;5086547;28;20056;-76
2022/06/02 07:26:06;;;;;;;8.98;4.63;;;;;;;;;;5085601;28;20143;-77
2022/06/02 07:28:44;;;;;;;8.13;4.60;;;;;;;;;;5092110;28;20052;-76
2022/06/02 07:31:20;;;;;;;7.88;4.70;;;;;;;;;;5098540;28;20307;-77
2022/06/02 07:34:08;;;;;;;7.40;4.47;;;;;;;;;;5096271;28;20090;-77
2022/06/02 07:36:53;;;;;;;6.05;3.97;;;;;;;;;;5090177;28;20132;-76
2022/06/02 07:39:32;;;;;;;7.28;3.60;;;;;;;;;;5088451;28;20060;-76
2022/06/02 07:42:03;;;;;;;6.82;4.15;;;;;;;;;;5085655;28;20066;-76
2022/06/02 07:44:40;;;;;;;8.30;4.38;;;;;;;;;;5086387;28;20063;-76
2022/06/02 07:47:10;;;;;;;7.70;4.15;;;;;;;;;;5080774;28;20147;-76
2022/06/02 07:49:53;;;;;;;9.25;3.50;;;;;;;;;;5093280;28;20526;-79
2022/06/02 07:52:26;;;;;;;6.93;3.20;;;;;;;;;;5089906;28;20060;-76
2022/06/02 07:54:52;;;;;;;6.03;2.45;;;;;;;;;;5088103;28;20052;-76
2022/06/02 07:57:38;;;;;;;6.00;2.92;;;;;;;;;;5082082;28;20157;-76
2022/06/02 08:00:04;;;;;;;6.47;4.18;;;;;;;;;;5088271;28;20051;-76
2022/06/02 08:02:30;;;;;;;6.30;4.30;;;;;;;;;;5081715;28;20499;-76
2022/06/02 08:05:16;;;;;;;6.32;3.90;;;;;;;;;;5079475;28;20122;-76
2022/06/02 08:07:53;;;;;;;6.50;3.38;;;;;;;;;;5086452;28;20577;-76
2022/06/02 08:10:21;;;;;;;7.43;4.03;;;;;;;;;;5086941;28;20443;-76
2022/06/02 08:13:11;;;;;;;9.15;4.80;;;;;;;;;;5090639;28;20258;-76
2022/06/02 08:16:07;;;;;;;7.70;4.40;;;;;;;;;;5073278;28;20143;-76
2022/06/02 08:18:36;;;;;;;7.82;4.72;;;;;;;;;;5073097;27;21067;-76
2022/06/02 08:21:18;;;;;;;7.60;3.20;;;;;;;;;;5082234;28;20147;-76
2022/06/02 08:23:44;;;;;;;5.60;2.70;;;;;;;;;;5088610;28;20420;-76
2022/06/02 08:26:13;;;;;;;5.57;2.90;;;;;;;;;;5087459;28;20588;-76
2022/06/02 08:28:49;;;;;;;6.70;3.08;;;;;;;;;;5090536;28;20498;-76
2022/06/02 08:31:31;;;;;;;7.63;2.90;;;;;;;;;;5091813;28;20048;-76
2022/06/02 08:34:21;;;;;;;7.78;3.40;;;;;;;;;;5181738;27;20423;-77
2022/06/02 08:37:10;;;;;;;5.60;2.75;;;;;;;;;;5143177;27;20045;-77
2022/06/02 08:40:15;;;;;;;5.20;2.50;;;;;;;;;;5149206;27;20050;-77
2022/06/02 08:42:41;;;;;;;5.30;2.90;;;;;;;;;;5043994;28;20511;-77
2022/06/02 08:45:19;;;;;;;6.22;3.40;;;;;;;;;;5069391;28;20059;-77
2022/06/02 08:47:48;;;;;;;4.88;2.78;;;;;;;;;;5120835;27;20093;-77
2022/06/02 08:50:38;;;;;;;5.53;2.35;;;;;;;;;;5155051;27;20054;-77
2022/06/02 08:53:23;;;;;;;5.22;2.53;;;;;;;;;;5166895;27;20054;-77
2022/06/02 08:56:10;;;;;;;7.55;3.90;;;;;;;;;;5158597;27;20058;-77
2022/06/02 08:58:40;;;;;;;5.30;3.00;;;;;;;;;;5151245;27;20141;-77
2022/06/02 09:01:12;;;;;;;4.47;2.63;;;;;;;;;;5145838;27;20180;-77
2022/06/02 09:03:42;;;;;;;5.97;3.20;;;;;;;;;;5149723;27;20083;-77
2022/06/02 09:06:08;;;;;;;6.43;2.67;;;;;;;;;;5176943;27;20491;-76
2022/06/02 09:08:54;;;;;;;6.57;2.70;;;;;;;;;;5171462;27;20288;-77
2022/06/02 09:11:42;;;;;;;5.20;2.17;;;;;;;;;;5156093;27;20520;-77
2022/06/02 09:14:17;;;;;;;5.50;1.70;;;;;;;;;;5164130;27;21452;-77
2022/06/02 09:16:49;;;;;;;5.45;2.25;;;;;;;;;;5146038;27;20406;-77
2022/06/02 09:19:18;;;;;;;5.78;1.80;;;;;;;;;;5149421;27;20186;-77
2022/06/02 09:21:51;;;;;;;4.47;1.80;;;;;;;;;;5149347;27;20104;-77
2022/06/02 09:24:28;;;;;;;4.28;1.55;;;;;;;;;;5168409;27;20077;-77
2022/06/02 09:27:17;;;;;;;3.38;1.58;;;;;;;;;;5159180;27;20145;-78
2022/06/02 09:30:11;;;;;;;3.00;1.50;;;;;;;;;;5185381;27;20170;-78
2022/06/02 09:33:33;;;;;;;3.70;1.67;;;;;;;;;;5159410;27;20519;-77
2022/06/02 09:36:00;;;;;;;5.00;1.70;;;;;;;;;;5171178;27;20124;-78
2022/06/02 09:38:49;;;;;;;4.15;1.63;;;;;;;;;;5154646;27;20051;-77
2022/06/02 09:41:18;;;;;;;6.63;1.43;;;;;;;;;;5160544;27;20081;-77
2022/06/02 09:44:00;;;;;;;5.93;2.10;;;;;;;;;;5148603;27;20596;-77
2022/06/02 09:46:44;;;;;;;4.07;2.30;;;;;;;;;;5142931;27;20054;-77
2022/06/02 09:49:12;;;;;;;5.13;2.60;;;;;;;;;;5143321;27;20501;-77
2022/06/02 09:51:57;;;;;;;4.20;2.13;;;;;;;;;;5144125;27;20138;-77
2022/06/02 09:54:31;;;;;;;5.82;2.20;;;;;;;;;;5141540;27;20051;-78
2022/06/02 10:00:22;;;;;;;5.13;2.60;;;;;;;;;;5161092;27;20051;-81
2022/06/02 10:02:54;;;;;;;4.13;2.15;;;;;;;;;;5116014;27;20055;-78
2022/06/02 10:05:30;;;;;;;6.15;2.92;;;;;;;;;;5138450;27;20083;-77
2022/06/02 10:07:57;;;;;;;5.30;2.80;;;;;;;;;;5137848;27;20066;-77
2022/06/02 10:10:29;;;;;;;4.25;2.53;;;;;;;;;;5169612;27;20508;-78
2022/06/02 10:13:08;;;;;;;6.60;2.85;;;;;;;;;;5142747;27;20053;-78
2022/06/02 10:15:34;;;;;;;7.40;3.08;;;;;;;;;;5141994;27;20055;-77
2022/06/02 10:18:06;;;;;;;6.57;3.33;;;;;;;;;;5139184;27;20066;-77
2022/06/02 10:20:51;;;;;;;4.57;2.80;;;;;;;;;;5162339;27;20635;-77
2022/06/02 10:23:31;;;;;;;5.13;3.03;;;;;;;;;;5139688;27;20138;-79
2022/06/02 10:26:17;;;;;;;7.18;3.28;;;;;;;;;;5136258;27;20086;-77
2022/06/02 10:29:03;;;;;;;8.15;2.75;;;;;;;;;;5147555;27;20055;-78
2022/06/02 10:31:39;;;;;;;5.85;3.00;;;;;;;;;;5144710;27;20082;-77
2022/06/02 10:34:32;;;;;;;5.65;2.75;;;;;;;;;;5133243;27;20042;-77
2022/06/02 10:37:23;;;;;;;6.05;2.45;;;;;;;;;;5132874;27;20158;-77
2022/06/02 10:39:49;;;;;;;5.00;2.63;;;;;;;;;;5137883;27;20051;-77
2022/06/02 10:42:31;;;;;;;6.38;3.17;;;;;;;;;;5134419;27;20891;-77
2022/06/02 10:45:13;;;;;;;5.18;2.35;;;;;;;;;;5132212;27;20467;-77
2022/06/02 10:47:54;;;;;;;4.97;2.10;;;;;;;;;;5152519;27;20112;-77
2022/06/02 10:50:25;;;;;;;6.13;2.47;;;;;;;;;;5151221;27;20061;-77
2022/06/02 10:52:55;;;;;;;4.35;2.33;;;;;;;;;;5133061;27;20051;-77
2022/06/02 10:55:40;;;;;;;4.72;2.13;;;;;;;;;;5149774;27;20107;-77
2022/06/02 10:58:26;;;;;;;4.60;2.08;;;;;;;;;;5128777;27;20149;-76
2022/06/02 11:00:55;;;;;;;4.90;2.40;;;;;;;;;;5159186;27;20193;-77
2022/06/02 11:03:41;;;;;;;4.50;2.23;;;;;;;;;;5167793;27;20076;-77
2022/06/02 11:06:07;;;;;;;4.65;2.22;;;;;;;;;;5134832;27;20055;-77
2022/06/02 11:08:52;;;;;;;4.88;2.10;;;;;;;;;;5156660;27;20104;-77
2022/06/02 11:11:28;;;;;;;6.25;2.20;;;;;;;;;;5149463;27;20138;-76
2022/06/02 11:14:13;;;;;;;5.82;2.30;;;;;;;;;;5165908;27;20046;-76
2022/06/02 11:16:58;;;;;;;5.55;2.28;;;;;;;;;;5137445;27;20055;-77
2022/06/02 11:19:46;;;;;;;7.47;2.70;;;;;;;;;;5132874;27;20059;-77
2022/06/02 11:22:24;;;;;;;4.05;2.17;;;;;;;;;;5139596;27;20104;-77
2022/06/02 11:25:19;;;;;;;4.80;2.22;;;;;;;;;;5162059;27;20524;-77
2022/06/02 11:27:45;;;;;;;;;;;;;;;;;;5149669;27;20141;-78
2022/06/02 11:30:31;;;;;;;5.65;1.75;;;;;;;;;;5156342;27;47018;-78
2022/06/02 11:33:03;;;;;;;3.72;1.80;;;;;;;;;;5132628;27;20055;-77
2022/06/02 11:35:33;;;;;;;4.55;2.05;;;;;;;;;;5155501;27;20051;-77
2022/06/02 11:37:59;;;;;;;4.03;1.90;;;;;;;;;;5127838;27;20047;-77
2022/06/02 11:40:50;;;;;;;6.22;1.98;;;;;;;;;;5132367;27;20066;-77
2022/06/02 11:43:24;;;;;;;5.05;2.00;;;;;;;;;;5149136;27;20115;-77
2022/06/02 11:45:56;;;;;;;4.55;1.95;;;;;;;;;;5127097;27;20055;-77
2022/06/02 11:48:48;;;;;;;6.72;2.28;;;;;;;;;;5156450;27;20099;-77
2022/06/02 11:51:20;;;;;;;6.13;2.10;;;;;;;;;;5156383;27;20050;-77
2022/06/02 11:54:02;;;;;;;4.45;2.28;;;;;;;;;;5136930;27;20057;-77
2022/06/02 11:56:41;;;;;;;5.50;3.00;;;;;;;;;;5150247;27;20588;-77
2022/06/02 11:59:26;;;;;;;5.55;2.28;;;;;;;;;;5158157;27;20998;-76
2022/06/02 12:02:01;;;;;;;4.32;2.20;;;;;;;;;;5155312;27;20062;-77
2022/06/02 12:04:37;;;;;;;4.35;2.47;;;;;;;;;;5139186;27;20202;-77
2022/06/02 12:07:22;;;;;;;3.42;2.00;;;;;;;;;;5129613;27;20051;-77
2022/06/02 12:10:00;;;;;;;6.65;2.63;;;;;;;;;;5128555;27;20142;-77
2022/06/02 12:12:45;;;;;;;3.65;1.90;;;;;;;;;;5157513;27;20142;-76
2022/06/02 12:15:30;;;;;;;5.55;2.40;;;;;;;;;;5144487;27;20051;-75
2022/06/02 12:17:57;;;;;;;4.72;2.50;;;;;;;;;;5131010;27;20059;-75
2022/06/02 12:20:26;;;;;;;4.97;2.40;;;;;;;;;;5153613;27;20047;-75
2022/06/02 12:22:52;;;;;;;4.40;2.42;;;;;;;;;;5146577;27;20055;-75
2022/06/02 12:25:37;;;;;;;4.53;2.47;;;;;;;;;;5129359;27;20055;-76
2022/06/02 12:28:27;;;;;;;5.53;2.92;;;;;;;;;;5144581;27;20132;-76
2022/06/02 12:31:03;;;;;;;5.28;2.40;;;;;;;;;;5100590;27;20180;-76
2022/06/02 12:33:35;;;;;;;6.47;2.83;;;;;;;;;;5141900;27;22716;-76
2022/06/02 12:36:04;;;;;;;5.53;2.40;;;;;;;;;;5136406;27;20057;-76
2022/06/02 12:38:49;;;;;;;5.10;2.10;;;;;;;;;;5127526;27;20546;-75
2022/06/02 12:41:18;;;;;;;5.57;2.67;;;;;;;;;;5144663;27;20051;-75
2022/06/02 12:44:04;;;;;;;6.20;2.65;;;;;;;;;;5148357;27;20139;-75
2022/06/02 12:46:49;;;;;;;3.60;2.10;;;;;;;;;;5149993;27;20622;-75
2022/06/02 12:49:17;;;;;;;5.47;2.20;;;;;;;;;;5148891;27;20079;-75
2022/06/02 12:52:02;;;;;;;6.18;2.30;;;;;;;;;;5144073;27;20062;-73
2022/06/02 12:54:41;;;;;;;4.47;2.08;;;;;;;;;;5163280;27;20051;-75
2022/06/02 12:57:13;;;;;;;4.97;2.75;;;;;;;;;;5134325;27;20360;-75
2022/06/02 12:59:39;;;;;;;4.45;2.20;;;;;;;;;;5139539;27;20603;-75
2022/06/02 13:02:25;;;;;;;6.00;2.10;;;;;;;;;;5137511;27;20559;-76
2022/06/02 13:04:58;;;;;;;4.72;2.15;;;;;;;;;;5142852;27;20209;-76
2022/06/02 13:07:31;;;;;;;5.13;2.60;;;;;;;;;;5148162;27;20145;-75
2022/06/02 13:10:06;;;;;;;5.72;2.22;;;;;;;;;;5128833;27;20496;-75
2022/06/02 13:12:36;;;;;;;4.25;2.05;;;;;;;;;;5139937;27;20116;-75
2022/06/02 13:15:08;;;;;;;6.13;2.28;;;;;;;;;;5145549;27;20672;-75
2022/06/02 13:17:54;;;;;;;5.97;2.30;;;;;;;;;;5143243;27;20086;-75
2022/06/02 13:20:29;;;;;;;4.82;2.45;;;;;;;;;;5151691;27;20318;-75
2022/06/02 13:23:15;;;;;;;4.97;2.90;;;;;;;;;;5150238;27;20046;-75
2022/06/02 13:26:00;;;;;;;4.57;2.40;;;;;;;;;;5151214;27;20178;-75
2022/06/02 13:28:53;;;;;;;4.88;2.30;;;;;;;;;;5152799;27;20054;-75
2022/06/02 13:31:22;;;;;;;5.30;2.22;;;;;;;;;;5154749;27;20146;-75
2022/06/02 13:34:07;;;;;;;3.80;1.83;;;;;;;;;;5151682;27;20140;-75
2022/06/02 13:36:41;;;;;;;4.15;2.05;;;;;;;;;;5163164;27;20512;-75
2022/06/02 13:39:19;;;;;;;4.43;1.98;;;;;;;;;;5144633;27;20107;-75
2022/06/02 13:42:01;;;;;;;4.97;2.50;;;;;;;;;;5154052;27;20527;-75
2022/06/02 13:44:43;;;;;;;7.63;2.08;;;;;;;;;;5139729;27;20172;-75
2022/06/02 13:47:21;;;;;;;4.68;1.83;;;;;;;;;;5159048;27;20498;-75
2022/06/02 13:50:00;;;;;;;3.25;1.80;;;;;;;;;;5157843;27;20050;-75
2022/06/02 13:52:45;;;;;;;3.67;1.90;;;;;;;;;;5127672;27;20146;-75
2022/06/02 13:58:24;;;;;;;3.97;2.20;;;;;;;;;;5156873;27;20072;-75
2022/06/02 14:01:27;;;;;;;3.85;2.10;;;;;;;;;;5149447;27;20051;-75
2022/06/02 14:04:17;;;;;;;6.22;2.40;;;;;;;;;;5045547;28;20067;-75
2022/06/02 14:06:46;;;;;;;5.35;1.85;;;;;;;;;;5147358;27;20051;-75
2022/06/02 14:09:14;;;;;;;4.00;1.95;;;;;;;;;;5160315;27;20050;-75
2022/06/02 14:11:43;;;;;;;4.30;1.98;;;;;;;;;;5145005;27;20055;-75
2022/06/02 14:14:12;;;;;;;4.00;1.80;;;;;;;;;;5150096;27;20539;-75
2022/06/02 14:16:39;;;;;;;5.43;1.90;;;;;;;;;;5128102;27;20055;-75
2022/06/02 14:19:17;;;;;;;3.80;2.20;;;;;;;;;;5146756;27;20494;-75
2022/06/02 14:21:43;;;;;;;5.03;2.40;;;;;;;;;;5145488;27;20104;-75
2022/06/02 14:24:14;;;;;;;8.35;2.70;;;;;;;;;;5158365;27;20876;-75
2022/06/02 14:27:01;;;;;;;5.70;2.40;;;;;;;;;;5155097;27;20097;-75
2022/06/02 14:29:37;;;;;;;4.30;2.17;;;;;;;;;;5136766;27;21103;-75
2022/06/02 14:32:06;;;;;;;4.25;2.03;;;;;;;;;;5146482;27;20051;-75
2022/06/02 14:34:41;;;;;;;4.90;2.25;;;;;;;;;;5150222;27;20135;-75
2022/06/02 14:37:22;;;;;;;4.65;2.05;;;;;;;;;;5155841;27;20046;-75
2022/06/02 14:39:57;;;;;;;4.03;1.65;;;;;;;;;;5146560;27;20053;-75
2022/06/02 14:45:21;;;;;;;3.33;1.73;;;;;;;;;;5162612;27;20050;-75
2022/06/02 14:47:51;;;;;;;4.05;1.70;;;;;;;;;;5122512;27;20062;-75
2022/06/02 14:50:54;;;;;;;5.45;1.63;;;;;;;;;;5142591;27;20054;-75
2022/06/02 14:53:45;;;;;;;5.72;1.85;;;;;;;;;;5145541;27;20145;-75
2022/06/02 14:56:23;;;;;;;4.32;1.42;;;;;;;;;;5153116;27;20047;-75
2022/06/02 14:58:56;;;;;;;6.35;1.73;;;;;;;;;;5152476;27;20142;-75
2022/06/02 15:01:38;;;;;;;4.22;1.77;;;;;;;;;;5144850;27;20055;-75
2022/06/02 15:04:23;;;;;;;3.58;1.42;;;;;;;;;;5132208;27;21164;-75
2022/06/02 15:06:50;;;;;;;3.42;1.40;;;;;;;;;;5162322;27;20497;-75
2022/06/02 15:09:35;;;;;;;4.55;1.50;;;;;;;;;;5147718;27;20055;-76
2022/06/02 15:12:18;;;;;;;4.57;1.42;;;;;;;;;;5132552;27;20043;-76
2022/06/02 15:15:05;;;;;;;3.15;1.50;;;;;;;;;;5153459;27;20133;-76
2022/06/02 15:17:46;;;;;;;3.75;1.70;;;;;;;;;;5152776;27;20492;-76
2022/06/02 15:20:21;;;;;;;4.07;1.40;;;;;;;;;;5151573;27;20233;-76
2022/06/02 15:23:17;;;;;;;4.13;1.60;;;;;;;;;;5146745;27;20057;-76
2022/06/02 15:26:04;;;;;;;4.75;1.40;;;;;;;;;;5145282;27;20051;-76
2022/06/02 15:28:45;;;;;;;4.88;1.75;;;;;;;;;;5138166;27;20047;-76
2022/06/02 15:31:38;;;;;;;3.80;1.52;;;;;;;;;;5139452;27;20055;-76
2022/06/02 15:34:09;;;;;;;3.55;1.50;;;;;;;;;;5152340;27;20100;-77
2022/06/02 15:36:54;;;;;;;3.20;1.40;;;;;;;;;;5150466;27;20186;-77
2022/06/02 15:39:30;;;;;;;3.90;1.60;;;;;;;;;;5127342;27;20766;-77
2022/06/02 15:42:05;;;;;;;4.40;1.52;;;;;;;;;;5151919;27;20247;-77
2022/06/02 15:44:40;;;;;;;6.40;1.67;;;;;;;;;;5160207;27;20134;-77
2022/06/02 15:47:20;;;;;;;4.18;1.60;;;;;;;;;;5151198;27;20050;-77
2022/06/02 15:50:00;;;;;;;4.43;2.00;;;;;;;;;;5152495;27;20082;-77